createdAt,value
2022-09-24T00:02:11.250Z,5.65
2022-09-24T00:04:37.521Z,6.18
2022-09-24T00:07:03.755Z,6.57
2022-09-24T00:09:29.984Z,6.85
2022-09-24T00:11:56.179Z,6.28
2022-09-24T00:14:22.556Z,6.47
2022-09-24T00:16:49.599Z,5.88
2022-09-24T00:19:15.800Z,6.38
2022-09-24T00:21:42.467Z,5.55
2022-09-24T00:24:36.332Z,5.35
2022-09-24T00:27:03.455Z,5.70
2022-09-24T00:29:32.872Z,5.82
2022-09-24T00:31:59.105Z,5.82
2022-09-24T00:34:25.397Z,6.70
2022-09-24T00:36:53.338Z,6.60
2022-09-24T00:39:19.541Z,5.93
2022-09-24T00:41:47.901Z,6.10
2022-09-24T00:44:32.988Z,5.40
2022-09-24T00:46:59.261Z,5.63
2022-09-24T00:49:25.598Z,5.63
2022-09-24T00:51:52.807Z,5.60
2022-09-24T00:54:20.954Z,5.70
2022-09-24T00:56:48.846Z,6.22
2022-09-24T00:59:17.232Z,6.03
2022-09-24T01:01:46.816Z,5.03
2022-09-24T01:04:13.729Z,6.05
2022-09-24T01:06:40.115Z,5.57
2022-09-24T01:09:06.586Z,5.93
2022-09-24T01:11:44.948Z,5.68
2022-09-24T01:14:11.372Z,5.82
2022-09-24T01:16:44.078Z,5.70
2022-09-24T01:19:10.275Z,6.10
2022-09-24T01:21:43.632Z,6.00
2022-09-24T01:24:32.392Z,5.80
2022-09-24T01:27:06.120Z,5.53
2022-09-24T01:29:41.724Z,5.70
2022-09-24T01:32:14.510Z,5.57
2022-09-24T01:34:43.399Z,5.78
2022-09-24T01:37:09.735Z,4.88
2022-09-24T01:39:37.722Z,5.85
2022-09-24T01:42:04.341Z,6.13
2022-09-24T01:44:31.517Z,5.55
2022-09-24T01:46:59.484Z,5.63
2022-09-24T01:49:26.460Z,5.22
2022-09-24T01:51:56.080Z,5.50
2022-09-24T01:54:25.090Z,6.20
2022-09-24T01:56:54.728Z,5.10
2022-09-24T01:59:32.936Z,5.80
2022-09-24T02:02:03.092Z,5.75
2022-09-24T02:04:30.113Z,4.95
2022-09-24T02:07:13.225Z,5.43
2022-09-24T02:09:40.748Z,6.00
2022-09-24T02:12:11.652Z,5.72
2022-09-24T02:14:41.453Z,6.55
2022-09-24T02:17:09.739Z,6.05
2022-09-24T02:19:37.493Z,6.28
2022-09-24T02:22:05.919Z,5.72
2022-09-24T02:24:34.603Z,5.90
2022-09-24T02:27:00.938Z,6.45
2022-09-24T02:29:27.332Z,6.38
2022-09-24T02:31:55.582Z,6.57
2022-09-24T02:34:25.473Z,6.85
2022-09-24T02:36:53.645Z,7.45
2022-09-24T02:39:20.464Z,6.60
2022-09-24T02:41:48.061Z,5.88
2022-09-24T02:44:15.511Z,5.93
2022-09-24T02:46:42.714Z,5.80
2022-09-24T02:49:09.813Z,6.32
2022-09-24T02:51:36.077Z,5.72
2022-09-24T02:54:02.668Z,5.78
2022-09-24T02:56:29.129Z,5.40
2022-09-24T02:58:55.543Z,6.55
2022-09-24T03:01:22.584Z,5.78
2022-09-24T03:03:49.159Z,6.10
2022-09-24T03:06:15.701Z,6.13
2022-09-24T03:08:42.271Z,6.07
2022-09-24T03:11:12.961Z,5.78
2022-09-24T03:13:41.400Z,6.25
2022-09-24T03:16:07.852Z,5.93
2022-09-24T03:18:34.505Z,6.15
2022-09-24T03:21:01.694Z,5.80
2022-09-24T03:23:28.198Z,5.60
2022-09-24T03:25:54.656Z,6.35
2022-09-24T03:28:20.840Z,6.10
2022-09-24T03:31:02.573Z,5.60
2022-09-24T03:33:32.773Z,6.20
2022-09-24T03:36:00.856Z,6.40
2022-09-24T03:38:27.700Z,6.25
2022-09-24T03:40:54.002Z,6.55
2022-09-24T03:43:20.279Z,7.20
2022-09-24T03:45:46.529Z,6.85
2022-09-24T03:48:12.711Z,6.63
2022-09-24T03:50:39.099Z,6.50
2022-09-24T03:53:05.286Z,7.20
2022-09-24T03:55:31.513Z,7.15
2022-09-24T03:57:57.707Z,6.85
2022-09-24T04:00:23.888Z,7.35
2022-09-24T04:02:50.228Z,7.00
2022-09-24T04:05:16.912Z,6.93
2022-09-24T04:07:43.629Z,6.65
2022-09-24T04:10:09.960Z,6.95
2022-09-24T04:12:36.229Z,7.30
2022-09-24T04:15:05.314Z,6.97
2022-09-24T04:17:31.548Z,6.75
2022-09-24T04:19:58.303Z,6.57
2022-09-24T04:22:25.932Z,7.20
2022-09-24T04:24:52.604Z,6.95
2022-09-24T04:27:18.854Z,7.20
2022-09-24T04:29:45.076Z,7.30
2022-09-24T04:32:11.260Z,7.03
2022-09-24T04:34:37.516Z,8.05
2022-09-24T04:37:03.837Z,7.60
2022-09-24T04:39:30.012Z,7.45
2022-09-24T04:41:56.204Z,8.15
2022-09-24T04:44:23.500Z,7.28
2022-09-24T04:46:49.953Z,7.13
2022-09-24T04:49:16.201Z,7.28
2022-09-24T04:51:42.370Z,7.35
2022-09-24T04:54:08.926Z,7.60
2022-09-24T04:56:35.140Z,7.85
2022-09-24T04:59:01.383Z,6.90
2022-09-24T05:01:27.715Z,6.93
2022-09-24T05:03:54.020Z,7.38
2022-09-24T05:06:20.262Z,7.03
2022-09-24T05:08:46.443Z,7.45
2022-09-24T05:11:13.000Z,7.22
2022-09-24T05:13:39.197Z,6.78
2022-09-24T05:16:05.539Z,6.47
2022-09-24T05:18:31.831Z,7.70
2022-09-24T05:20:58.049Z,7.00
2022-09-24T05:23:24.734Z,7.22
2022-09-24T05:26:09.726Z,7.70
2022-09-24T05:28:36.079Z,6.78
2022-09-24T05:31:02.447Z,6.68
2022-09-24T05:33:28.785Z,6.57
2022-09-24T05:35:55.334Z,6.63
2022-09-24T05:38:21.613Z,6.75
2022-09-24T05:40:47.851Z,6.90
2022-09-24T05:43:14.475Z,6.78
2022-09-24T05:45:41.675Z,6.75
2022-09-24T05:48:07.908Z,7.10
2022-09-24T05:50:34.758Z,6.68
2022-09-24T05:53:01.421Z,6.80
2022-09-24T05:55:32.028Z,6.93
2022-09-24T05:58:02.617Z,7.28
2022-09-24T06:00:28.872Z,7.28
2022-09-24T06:03:00.951Z,7.93
2022-09-24T06:05:29.194Z,7.63
2022-09-24T06:07:56.075Z,7.22
2022-09-24T06:10:22.267Z,6.93
2022-09-24T06:12:48.822Z,6.95
2022-09-24T06:15:15.685Z,7.95
2022-09-24T06:17:41.943Z,6.80
2022-09-24T06:20:08.377Z,7.50
2022-09-24T06:22:34.607Z,6.88
2022-09-24T06:25:00.794Z,7.60
2022-09-24T06:27:26.992Z,7.32
2022-09-24T06:29:53.188Z,7.30
2022-09-24T06:32:19.621Z,6.97
2022-09-24T06:34:45.797Z,6.97
2022-09-24T06:37:12.065Z,7.32
2022-09-24T06:39:38.289Z,7.68
2022-09-24T06:42:04.624Z,7.78
2022-09-24T06:44:31.024Z,7.80
2022-09-24T06:46:57.472Z,7.47
2022-09-24T06:49:23.929Z,8.23
2022-09-24T06:51:50.887Z,8.27
2022-09-24T06:54:17.084Z,8.13
2022-09-24T06:56:43.289Z,7.75
2022-09-24T06:59:09.691Z,7.40
2022-09-24T07:01:36.022Z,8.07
2022-09-24T07:04:02.271Z,7.63
2022-09-24T07:06:48.429Z,8.18
2022-09-24T07:09:14.726Z,8.13
2022-09-24T07:11:41.834Z,7.60
2022-09-24T07:14:08.031Z,7.93
2022-09-24T07:16:34.286Z,8.07
2022-09-24T07:19:00.839Z,8.07
2022-09-24T07:21:27.084Z,7.45
2022-09-24T07:23:58.351Z,8.18
2022-09-24T07:28:50.944Z,8.30
2022-09-24T07:31:17.486Z,8.70
2022-09-24T07:33:43.729Z,9.05
2022-09-24T07:36:09.924Z,8.73
2022-09-24T07:38:38.816Z,8.95
2022-09-24T07:41:07.947Z,8.30
2022-09-24T07:43:34.174Z,9.07
2022-09-24T07:46:00.356Z,8.63
2022-09-24T07:48:26.698Z,8.25
2022-09-24T07:50:53.085Z,8.48
2022-09-24T07:53:19.603Z,8.02
2022-09-24T07:55:46.204Z,9.13
2022-09-24T07:58:13.757Z,8.52
2022-09-24T08:00:40.396Z,8.65
2022-09-24T08:03:07.353Z,8.80
2022-09-24T08:05:33.684Z,8.00
2022-09-24T08:08:00.043Z,8.77
2022-09-24T08:10:27.680Z,8.68
2022-09-24T08:12:54.107Z,8.90
2022-09-24T08:15:20.313Z,8.65
2022-09-24T08:17:46.536Z,8.50
2022-09-24T08:20:12.904Z,12.38
2022-09-24T08:22:39.159Z,9.23
2022-09-24T08:25:06.103Z,10.35
2022-09-24T08:27:32.930Z,8.75
2022-09-24T08:30:00.451Z,9.07
2022-09-24T08:32:29.346Z,9.02
2022-09-24T08:34:55.556Z,8.75
2022-09-24T08:37:21.802Z,9.07
2022-09-24T08:39:48.039Z,8.77
2022-09-24T08:42:38.227Z,8.85
2022-09-24T08:45:23.646Z,8.85
2022-09-24T08:47:54.922Z,9.10
2022-09-24T08:50:25.556Z,8.60
2022-09-24T08:53:10.476Z,8.87
2022-09-24T08:55:37.345Z,8.40
2022-09-24T08:58:15.273Z,9.05
2022-09-24T09:00:49.303Z,9.00
2022-09-24T09:03:20.853Z,9.07
2022-09-24T09:08:45.062Z,8.82
2022-09-24T09:11:09.061Z,9.38
2022-09-24T09:13:38.072Z,8.80
2022-09-24T09:16:04.305Z,9.10
2022-09-24T09:18:33.684Z,8.80
2022-09-24T09:21:20.138Z,10.13
2022-09-24T09:23:47.773Z,10.85
2022-09-24T09:26:14.519Z,11.10
2022-09-24T09:28:40.815Z,11.88
2022-09-24T09:31:25.793Z,16.05
2022-09-24T09:33:54.569Z,12.23
2022-09-24T09:36:20.739Z,11.35
2022-09-24T09:38:55.815Z,11.02
2022-09-24T09:41:34.363Z,10.38
2022-09-24T09:44:09.010Z,10.68
2022-09-24T09:46:37.909Z,10.77
2022-09-24T09:49:06.041Z,11.52
2022-09-24T09:51:37.187Z,12.15
2022-09-24T09:54:04.207Z,13.10
2022-09-24T09:56:49.637Z,10.88
2022-09-24T09:59:23.530Z,9.23
2022-09-24T10:01:56.153Z,10.55
2022-09-24T10:04:26.874Z,10.63
2022-09-24T10:07:03.005Z,11.93
2022-09-24T10:09:29.242Z,13.63
2022-09-24T10:12:05.740Z,13.25
2022-09-24T10:14:31.937Z,13.27
2022-09-24T10:17:05.150Z,13.63
2022-09-24T10:19:33.784Z,14.18
2022-09-24T10:22:07.081Z,14.25
2022-09-24T10:24:34.187Z,12.93
2022-09-24T10:27:00.633Z,14.77
2022-09-24T10:29:48.872Z,13.30
2022-09-24T10:32:17.670Z,13.88
2022-09-24T10:34:54.856Z,14.45
2022-09-24T10:37:21.124Z,14.25
2022-09-24T10:39:56.424Z,13.65
2022-09-24T10:42:24.637Z,14.45
2022-09-24T10:44:52.971Z,14.40
2022-09-24T10:47:27.290Z,15.75
2022-09-24T10:50:07.190Z,15.07
2022-09-24T10:52:52.225Z,20.70
2022-09-24T10:55:21.324Z,15.43
2022-09-24T10:57:50.499Z,13.40
2022-09-24T11:00:19.816Z,12.80
2022-09-24T11:02:57.946Z,14.63
2022-09-24T11:05:25.755Z,14.55
2022-09-24T11:07:56.508Z,13.82
2022-09-24T11:10:42.768Z,14.63
2022-09-24T11:13:27.441Z,13.65
2022-09-24T11:16:16.397Z,13.18
2022-09-24T11:18:56.211Z,12.60
2022-09-24T11:21:29.871Z,13.85
2022-09-24T11:24:08.262Z,13.38
2022-09-24T11:26:46.439Z,13.32
2022-09-24T11:29:15.839Z,12.70
2022-09-24T11:31:42.431Z,12.98
2022-09-24T11:34:08.713Z,10.65
2022-09-24T11:36:46.333Z,10.65
2022-09-24T11:39:21.736Z,15.80
2022-09-24T11:41:50.158Z,14.27
2022-09-24T11:44:31.593Z,12.23
2022-09-24T11:47:17.384Z,17.08
2022-09-24T11:49:43.542Z,15.13
2022-09-24T11:52:15.755Z,13.32
2022-09-24T11:54:49.363Z,12.35
2022-09-24T11:57:35.946Z,10.70
2022-09-24T12:00:17.513Z,10.50
2022-09-24T12:02:47.032Z,10.07
2022-09-24T12:05:25.395Z,9.77
2022-09-24T12:08:09.436Z,10.27
2022-09-24T12:10:35.622Z,77.43
2022-09-24T12:13:20.356Z,10.77
2022-09-24T12:15:49.732Z,10.65
2022-09-24T12:18:18.439Z,10.90
2022-09-24T12:20:59.301Z,10.95
2022-09-24T12:23:27.917Z,10.63
2022-09-24T12:25:55.417Z,9.73
2022-09-24T12:28:40.168Z,10.38
2022-09-24T12:31:32.233Z,10.73
2022-09-24T12:34:07.195Z,10.50
2022-09-24T12:36:57.459Z,11.07
2022-09-24T12:39:26.502Z,10.13
2022-09-24T12:41:58.520Z,9.18
2022-09-24T12:44:34.523Z,11.20
2022-09-24T12:47:00.880Z,10.10
2022-09-24T12:49:27.089Z,10.35
2022-09-24T12:51:54.423Z,10.43
2022-09-24T12:54:24.577Z,10.60
2022-09-24T12:56:51.472Z,9.27
2022-09-24T12:59:25.028Z,8.90
2022-09-24T13:01:51.362Z,10.80
2022-09-24T13:04:17.780Z,9.50
2022-09-24T13:06:46.497Z,10.20
2022-09-24T13:09:33.040Z,9.70
2022-09-24T13:12:20.682Z,10.10
2022-09-24T13:15:04.155Z,10.07
2022-09-24T13:17:32.199Z,9.43
2022-09-24T13:20:09.217Z,8.90
2022-09-24T13:22:36.456Z,9.05
2022-09-24T13:25:05.612Z,10.57
2022-09-24T13:27:31.823Z,9.93
2022-09-24T13:30:16.705Z,10.55
2022-09-24T13:32:50.095Z,10.77
2022-09-24T13:35:22.155Z,10.13
2022-09-24T13:37:53.428Z,10.10
2022-09-24T13:40:22.039Z,10.05
2022-09-24T13:43:04.201Z,14.20
2022-09-24T13:45:31.820Z,11.15
2022-09-24T13:48:05.096Z,10.30
2022-09-24T13:50:38.952Z,9.98
2022-09-24T13:53:16.073Z,9.63
2022-09-24T13:55:46.692Z,10.65
2022-09-24T13:58:32.799Z,12.27
2022-09-24T14:01:00.574Z,9.57
2022-09-24T14:03:28.947Z,9.25
2022-09-24T14:05:57.102Z,9.27
2022-09-24T14:08:24.217Z,9.05
2022-09-24T14:10:51.180Z,8.80
2022-09-24T14:13:26.926Z,8.63
2022-09-24T14:15:56.118Z,8.00
2022-09-24T14:18:23.487Z,8.65
2022-09-24T14:20:56.119Z,8.82
2022-09-24T14:23:24.243Z,8.35
2022-09-24T14:25:51.285Z,8.32
2022-09-24T14:28:18.638Z,9.10
2022-09-24T14:30:54.748Z,7.68
2022-09-24T14:33:25.803Z,7.88
2022-09-24T14:35:53.657Z,7.72
2022-09-24T14:38:35.837Z,8.55
2022-09-24T14:41:05.071Z,8.02
2022-09-24T14:43:42.537Z,6.85
2022-09-24T14:46:17.577Z,7.22
2022-09-24T14:48:44.159Z,7.68
2022-09-24T14:51:27.388Z,8.00
2022-09-24T14:54:00.973Z,7.80
2022-09-24T14:56:27.170Z,8.10
2022-09-24T14:58:53.414Z,7.50
2022-09-24T15:01:20.924Z,7.88
2022-09-24T15:03:55.024Z,7.60
2022-09-24T15:06:22.547Z,8.18
2022-09-24T15:09:00.748Z,7.95
2022-09-24T15:11:28.268Z,7.78
2022-09-24T15:13:58.756Z,7.57
2022-09-24T15:16:27.945Z,8.13
2022-09-24T15:19:12.747Z,8.48
2022-09-24T15:21:38.950Z,7.95
2022-09-24T15:24:05.225Z,7.40
2022-09-24T15:26:33.218Z,7.55
2022-09-24T15:29:03.094Z,7.72
2022-09-24T15:31:29.686Z,8.25
2022-09-24T15:33:58.694Z,7.53
2022-09-24T15:36:25.004Z,7.72
2022-09-24T15:38:52.232Z,8.30
2022-09-24T15:41:19.587Z,8.50
2022-09-24T15:43:45.879Z,8.50
2022-09-24T15:46:12.150Z,9.00
2022-09-24T15:48:38.459Z,9.13
2022-09-24T15:51:10.958Z,9.30
2022-09-24T15:53:38.112Z,8.95
2022-09-24T15:56:04.335Z,9.40
2022-09-24T15:58:30.548Z,9.38
2022-09-24T16:00:57.195Z,9.43
2022-09-24T16:03:25.465Z,10.05
2022-09-24T16:05:51.909Z,10.38
2022-09-24T16:08:18.151Z,9.52
2022-09-24T16:10:44.965Z,9.70
2022-09-24T16:13:11.712Z,11.88
2022-09-24T16:15:38.389Z,10.75
2022-09-24T16:18:04.857Z,13.50
2022-09-24T16:20:31.091Z,11.23
2022-09-24T16:22:57.293Z,14.38
2022-09-24T16:25:23.725Z,11.52
2022-09-24T16:27:50.870Z,11.25
2022-09-24T16:30:17.629Z,12.90
2022-09-24T16:32:43.928Z,10.15
2022-09-24T16:35:13.480Z,15.65
2022-09-24T16:37:40.212Z,12.10
2022-09-24T16:40:06.866Z,10.73
2022-09-24T16:42:33.508Z,10.77
2022-09-24T16:44:59.693Z,9.90
2022-09-24T16:47:25.948Z,10.07
2022-09-24T16:49:52.141Z,10.70
2022-09-24T16:52:18.887Z,10.48
2022-09-24T16:54:45.087Z,10.43
2022-09-24T16:57:11.320Z,10.55
2022-09-24T16:59:37.610Z,10.10
2022-09-24T17:02:03.994Z,11.40
2022-09-24T17:04:30.366Z,10.70
2022-09-24T17:06:57.670Z,11.27
2022-09-24T17:09:42.469Z,11.75
2022-09-24T17:12:10.805Z,10.35
2022-09-24T17:14:37.729Z,10.10
2022-09-24T17:17:04.619Z,10.88
2022-09-24T17:19:30.947Z,10.02
2022-09-24T17:21:57.424Z,10.75
2022-09-24T17:24:23.670Z,11.48
2022-09-24T17:26:49.944Z,11.18
2022-09-24T17:29:20.375Z,11.48
2022-09-24T17:31:46.628Z,11.32
2022-09-24T17:34:15.007Z,11.18
2022-09-24T17:36:41.644Z,10.73
2022-09-24T17:39:08.045Z,11.77
2022-09-24T17:41:34.667Z,11.02
2022-09-24T17:44:01.369Z,12.52
2022-09-24T17:46:29.533Z,11.38
2022-09-24T17:48:57.095Z,11.45
2022-09-24T17:51:27.529Z,12.05
2022-09-24T17:53:54.417Z,12.60
2022-09-24T17:56:22.068Z,11.90
2022-09-24T17:58:48.382Z,12.65
2022-09-24T18:01:17.365Z,13.40
2022-09-24T18:03:44.110Z,14.07
2022-09-24T18:06:12.628Z,14.55
2022-09-24T18:08:39.854Z,14.98
2022-09-24T18:11:07.357Z,14.43
2022-09-24T18:13:34.864Z,13.95
2022-09-24T18:16:08.667Z,13.80
2022-09-24T18:18:35.329Z,14.52
2022-09-24T18:21:02.255Z,13.02
2022-09-24T18:23:28.871Z,13.48
2022-09-24T18:25:56.158Z,13.68
2022-09-24T18:28:22.851Z,15.18
2022-09-24T18:30:49.187Z,13.73
2022-09-24T18:33:15.611Z,13.70
2022-09-24T18:35:41.919Z,13.32
2022-09-24T18:38:08.400Z,14.52
2022-09-24T18:40:35.064Z,15.00
2022-09-24T18:43:01.501Z,15.88
2022-09-24T18:45:28.251Z,15.50
2022-09-24T18:47:55.503Z,14.45
2022-09-24T18:50:21.742Z,13.45
2022-09-24T18:52:47.939Z,13.90
2022-09-24T18:55:14.188Z,15.00
2022-09-24T18:57:40.424Z,15.50
2022-09-24T19:00:27.093Z,13.90
2022-09-24T19:02:53.442Z,14.90
2022-09-24T19:05:21.009Z,13.90
2022-09-24T19:07:48.123Z,14.95
2022-09-24T19:10:14.610Z,15.82
2022-09-24T19:12:43.354Z,15.73
2022-09-24T19:15:09.681Z,15.77
2022-09-24T19:17:35.920Z,16.30
2022-09-24T19:20:02.265Z,17.20
2022-09-24T19:22:28.631Z,16.88
2022-09-24T19:24:54.902Z,15.40
2022-09-24T19:27:21.144Z,16.88
2022-09-24T19:29:47.353Z,15.45
2022-09-24T19:32:14.902Z,15.48
2022-09-24T19:34:41.103Z,16.92
2022-09-24T19:37:07.367Z,14.63
2022-09-24T19:39:33.633Z,15.95
2022-09-24T19:41:59.984Z,16.85
2022-09-24T19:44:26.209Z,17.63
2022-09-24T19:46:52.421Z,20.00
2022-09-24T19:49:20.056Z,18.95
2022-09-24T19:51:46.314Z,20.92
2022-09-24T19:54:12.771Z,20.33
2022-09-24T19:56:39.994Z,20.70
2022-09-24T19:59:07.758Z,20.83
2022-09-24T20:01:34.441Z,21.48
2022-09-24T20:04:03.501Z,19.95
2022-09-24T20:06:31.474Z,21.02
2022-09-24T20:08:57.908Z,20.88
2022-09-24T20:11:24.823Z,21.73
2022-09-24T20:13:52.568Z,21.63
2022-09-24T20:16:23.829Z,21.30
2022-09-24T20:18:50.909Z,20.23
2022-09-24T20:21:18.220Z,20.67
2022-09-24T20:23:45.501Z,20.08
2022-09-24T20:26:31.020Z,20.33
2022-09-24T20:28:57.487Z,18.65
2022-09-24T20:31:23.823Z,18.17
2022-09-24T20:33:50.109Z,19.20
2022-09-24T20:36:20.711Z,18.92
2022-09-24T20:38:48.295Z,18.80
2022-09-24T20:41:16.230Z,19.73
2022-09-24T20:43:43.308Z,19.48
2022-09-24T20:46:10.546Z,17.90
2022-09-24T20:48:37.247Z,17.05
2022-09-24T20:51:07.287Z,19.13
2022-09-24T20:53:34.519Z,17.85
2022-09-24T20:56:00.874Z,18.00
2022-09-24T20:58:27.107Z,17.38
2022-09-24T21:00:56.119Z,18.20
2022-09-24T21:03:42.803Z,20.13
2022-09-24T21:06:10.408Z,18.33
2022-09-24T21:08:37.833Z,16.63
2022-09-24T21:11:05.313Z,15.68
2022-09-24T21:13:33.020Z,15.43
2022-09-24T21:16:03.289Z,15.00
2022-09-24T21:18:39.844Z,15.57
2022-09-24T21:21:07.437Z,14.05
2022-09-24T21:23:35.691Z,14.98
2022-09-24T21:26:28.425Z,14.05
2022-09-24T21:29:01.696Z,14.07
2022-09-24T21:31:29.039Z,13.52
2022-09-24T21:33:55.372Z,14.43
2022-09-24T21:36:24.005Z,15.85
2022-09-24T21:38:56.040Z,15.23
2022-09-24T21:41:32.198Z,14.63
2022-09-24T21:43:58.740Z,14.82
2022-09-24T21:46:25.839Z,14.85
2022-09-24T21:48:52.541Z,14.95
2022-09-24T21:51:21.882Z,15.30
2022-09-24T21:53:49.117Z,15.57
2022-09-24T21:56:18.620Z,14.30
2022-09-24T21:58:45.847Z,15.30
2022-09-24T22:01:17.222Z,15.73
2022-09-24T22:03:45.372Z,15.32
2022-09-24T22:06:11.734Z,14.77
2022-09-24T22:08:37.947Z,15.95
2022-09-24T22:11:05.890Z,17.02
2022-09-24T22:13:32.433Z,17.27
2022-09-24T22:15:59.785Z,18.00
2022-09-24T22:18:27.670Z,17.20
2022-09-24T22:20:54.772Z,21.55
2022-09-24T22:23:21.292Z,18.50
2022-09-24T22:25:53.103Z,18.27
2022-09-24T22:28:22.656Z,17.48
2022-09-24T22:30:48.957Z,17.58
2022-09-24T22:33:35.140Z,17.80
2022-09-24T22:36:02.065Z,16.48
2022-09-24T22:38:28.328Z,17.55
2022-09-24T22:40:54.603Z,19.63
2022-09-24T22:43:20.900Z,17.55
2022-09-24T22:45:47.195Z,15.82
2022-09-24T22:48:13.594Z,16.08
2022-09-24T22:50:39.788Z,16.15
2022-09-24T22:53:06.012Z,15.73
2022-09-24T22:55:32.200Z,15.32
2022-09-24T22:57:58.446Z,14.27
2022-09-24T23:00:24.652Z,15.50
2022-09-24T23:02:50.855Z,16.45
2022-09-24T23:05:17.199Z,16.95
2022-09-24T23:07:43.413Z,16.52
2022-09-24T23:10:09.796Z,16.15
2022-09-24T23:12:36.004Z,15.60
2022-09-24T23:15:02.246Z,17.30
2022-09-24T23:17:28.460Z,16.52
2022-09-24T23:19:54.684Z,16.33
2022-09-24T23:22:21.953Z,16.55
2022-09-24T23:24:50.359Z,15.90
2022-09-24T23:27:17.453Z,16.80
2022-09-24T23:29:43.729Z,16.40
2022-09-24T23:32:10.523Z,16.48
2022-09-24T23:34:36.771Z,17.35
2022-09-24T23:37:03.024Z,17.77
2022-09-24T23:39:29.326Z,19.08
2022-09-24T23:41:55.571Z,18.27
2022-09-24T23:44:21.985Z,17.90
2022-09-24T23:46:48.946Z,18.63
2022-09-24T23:49:15.176Z,18.13
2022-09-24T23:51:41.499Z,18.40
2022-09-24T23:54:07.884Z,19.30
2022-09-24T23:56:34.062Z,18.02
2022-09-24T23:59:00.425Z,17.95
